Weather observations for the past three days for
Searcy Municipal Airport
Imperial (Metric)
Date Time (cdt) Wind (mph) Vis. (mi.) Weather Sky Cond. Temperature (ºF) Relative Humidity Wind Chill (°F) Heat Index (°F) Pressure Precipitation (in)
Air Dwpt 6 hour altimeter (in) sea level (mb) 1 hr 3 hr 6 hr
Max. Min.
04 21:56 Calm 10.00 Fair CLR 81 75 82% 87 29.94 1013.4
04 20:56 Calm 10.00 Fair CLR 82.9 75 77% 90 29.93 1013.1
04 19:56 Calm 10.00 Fair CLR 86 73 65% 93 29.91 1012.6
04 18:56 Calm 10.00 Fair CLR 93.9 73.9 100.9 93.9 52% 104 29.91 1012.4
04 17:56 SE 5 10.00 Fair CLR 99 70 39% 106 29.9 1012.0
04 16:56 Vrbl 3 10.00 Fair CLR 100 71.1 39% 109 29.91 1012.2
04 15:56 SE 3 10.00 Partly Cloudy FEW070 SCT090 100 71.1 39% 109 29.93 1012.9
04 14:56 Vrbl 6 10.00 A Few Clouds FEW060 100 71.1 39% 109 29.95 1013.6
04 13:56 SW 8 10.00 Fair CLR 98.1 73 45% 108 29.97 1014.4
04 12:56 SW 6 10.00 Fair CLR 97 73 97 73.9 46% 107 29.99 1015.1
04 11:56 S 7 10.00 Fair CLR 96.1 73 48% 106 30.01 1015.8
04 10:56 S 3 10.00 Fair CLR 93.9 75 54% 106 30.01 1015.8
04 09:56 Calm 10.00 Fair CLR 88 75 66% 98 30.01 1015.9
04 08:56 Calm 10.00 Fair CLR 82.9 75.9 79% 91 30.01 1015.8
04 07:56 Calm 10.00 Fair CLR 78.1 75 90% 81 30 1015.6
04 06:56 Calm 10.00 Fair CLR 73.9 73 77 73.9 97% 29.99 1015.1
04 05:56 W 3 10.00 Fair CLR 73.9 73 97% 29.98 1014.9
04 04:56 Calm 9.00 Fair CLR 75 73 94% 73 29.97 1014.6
04 03:56 Calm 10.00 Fair CLR 75 73.9 96% 73 29.96 1014.2
04 02:56 Calm 10.00 Fair CLR 75.9 73.9 94% 75 29.95 1013.8
04 01:56 W 3 10.00 Fair CLR 77 75 94% 78 29.95 1013.8
04 00:56 Calm 10.00 Fair CLR 77 75 93 77 94% 78 29.95 1014.0
03 23:56 Calm 10.00 Fair CLR 78.1 75 90% 81 29.95 1014.0
03 22:56 Calm 10.00 Fair CLR 79 75 88% 83 29.95 1013.9
03 21:56 Calm 10.00 Fair CLR 81 75.9 85% 87 29.96 1014.0
03 20:56 Calm 9.00 Fair CLR 82 75 79% 89 29.94 1013.6
03 19:56 Calm 10.00 Fair CLR 84.9 73.9 70% 92 29.93 1013.2
03 18:56 Calm 10.00 Fair CLR 93 73 98.1 93 52% 102 29.92 1012.9
03 17:56 S 5 10.00 Fair CLR 96.1 73 48% 106 29.92 1012.7
03 16:56 S 5 10.00 Fair CLR 97 73 46% 107 29.92 1012.7
03 15:56 S 8 10.00 A Few Clouds FEW060 97 73.9 48% 108 29.93 1013.3
03 14:56 SE 9 10.00 A Few Clouds FEW055 97 73.9 48% 108 29.95 1013.9
03 13:56 S 12 G 16 10.00 A Few Clouds FEW048 96.1 75 51% 108 29.98 1014.6
03 12:56 Vrbl 7 5.00 Fair with Haze CLR 93.9 73.9 93.9 73.9 52% 104 30 1015.5
03 11:56 SE 7 10.00 Fair CLR 93 75 56% 104 30.02 1016.1
03 10:56 SE 6 10.00 Fair CLR 91 73.9 57% 101 30.03 1016.5
03 09:56 Calm 10.00 Fair CLR 88 73.9 63% 97 30.03 1016.7
03 08:56 Calm 10.00 Fair CLR 84 75 74% 92 30.04 1016.8
03 07:56 Calm 10.00 Fair CLR 78.1 75.9 93% 81 30.03 1016.7
03 06:56 Calm 10.00 Fair CLR 73.9 73 78.1 73.9 97% 30.02 1016.2
03 05:56 Calm 10.00 Fair CLR 73.9 73.9 100% 30 1015.7
03 04:56 Calm 10.00 Fair CLR 73.9 73.9 100% 30 1015.5
03 03:56 Calm 10.00 Fair CLR 75 73.9 96% 73 29.99 1015.2
03 02:56 Calm 10.00 Fair CLR 75.9 75 97% 75 29.98 1014.8
03 01:56 Calm 10.00 Fair CLR 77 75 94% 78 29.98 1014.8
03 00:56 Calm 10.00 Fair CLR 78.1 75 93 78.1 90% 81 29.99 1014.9
02 23:56 Calm 10.00 Fair CLR 79 75.9 90% 83 29.99 1015.0
02 22:56 Calm 10.00 Fair CLR 80.1 75.9 87% 85 29.98 1014.9
02 21:56 Calm 10.00 Fair CLR 80.1 75.9 87% 85 29.98 1014.9
02 20:56 Calm 10.00 Fair CLR 82 75.9 82% 89 29.97 1014.6
02 19:56 Calm 10.00 Fair CLR 84.9 75.9 75% 94 29.96 1014.0
02 18:56 Calm 10.00 Fair CLR 93 73.9 98.1 93 54% 103 29.95 1013.9
02 17:56 SW 3 10.00 Fair CLR 96.1 73 48% 106 29.96 1014.1
02 16:56 S 7 10.00 Fair CLR 97 72 45% 106 29.97 1014.5
02 15:56 SW 6 10.00 Fair CLR 97 73 46% 107 29.98 1014.8
02 14:56 S 8 10.00 Fair CLR 96.1 73 48% 106 30 1015.4
02 13:56 S 8 7.00 A Few Clouds FEW055 96.1 73 48% 106 30.02 1016.3
02 12:56 S 8 10.00 Fair CLR 95 75 95 73 53% 107 30.05 1017.1
02 11:56 S 8 10.00 Fair CLR 93 75 56% 104 30.07 1018.0
02 10:56 S 3 10.00 Fair CLR 90 73.9 59% 99 30.08 1018.2
02 09:56 Calm 10.00 Fair CLR 88 75 66% 98 30.08 1018.3
02 08:56 Calm 10.00 Fair CLR 82.9 73.9 74% 89 30.08 1018.3
02 07:56 Calm 10.00 Fair CLR 78.1 73.9 87% 81 30.07 1017.9
02 06:56 Calm 10.00 Fair CLR 73 72 77 73 96% 30.06 1017.5
02 05:56 Calm 10.00 Fair CLR 73 73 100% 30.04 1016.9
02 04:56 Calm 10.00 Fair CLR 73.9 73 97% 30.04 1016.7
02 03:56 Calm 10.00 Fair CLR 75 72 90% 74 30.03 1016.4
02 02:56 Calm 10.00 Fair CLR 75.9 73 91% 76 30.03 1016.3
02 01:56 Calm 10.00 Partly Cloudy SCT070 75.9 73.9 94% 75 30.03 1016.4
02 00:56 Calm 10.00 Fair CLR 77 73 93 77 88% 78 30.02 1016.3
01 23:56 Calm 10.00 Fair CLR 78.1 73.9 87% 81 30.02 1016.1
Date Time (cdt) Wind (mph) Vis. (mi.) Weather Sky Cond. Air Dwpt Max. Min. Relative Humidity Wind Chill (°F) Heat Index (°F) altimeter (in) sea level (mb) 1 hr 3 hr 6 hr
6 hour
Temperature (ºF) Pressure Precipitation (in)